Time;durP1;ratioP1;P1;durP2;ratioP2;P2;SDS_P1;SDS_P2;PMS_P1;PMS_P2;Temp;Humidity;BMP_temperature;BMP_pressure;BME280_temperature;BME280_humidity;BME280_pressure;Samples;Min_cycle;Max_cycle;Signal;HPM_P1;HPM_P2
2022/06/27 00:01:34;;;;;;;6.78;5.12;;;;;;;17.45;62.63;97254.44;1789318;79;26521;-77
2022/06/27 00:04:01;;;;;;;6.85;4.90;;;;;;;17.43;62.70;97257.96;1786923;79;25705;-78
2022/06/27 00:06:27;;;;;;;5.67;5.17;;;;;;;17.40;62.80;97262.56;1794950;79;27473;-76
2022/06/27 00:08:54;;;;;;;5.12;4.60;;;;;;;17.36;62.98;97261.98;1781517;79;25856;-77
2022/06/27 00:11:21;;;;;;;6.05;4.80;;;;;;;17.34;63.05;97260.88;1783663;79;25694;-77
2022/06/27 00:13:49;;;;;;;5.30;4.70;;;;;;;17.32;63.10;97266.30;1793016;79;25752;-78
2022/06/27 00:16:15;;;;;;;6.85;5.10;;;;;;;17.28;63.14;97265.98;1789346;79;25728;-76
2022/06/27 00:18:42;;;;;;;5.92;5.20;;;;;;;17.25;63.27;97263.26;1793477;79;27394;-77
2022/06/27 00:21:09;;;;;;;6.42;5.17;;;;;;;17.23;63.34;97265.95;1789624;79;25643;-76
2022/06/27 00:23:36;;;;;;;10.40;5.40;;;;;;;17.18;63.38;97268.61;1784785;79;25762;-76
2022/06/27 00:26:02;;;;;;;7.20;5.62;;;;;;;17.15;63.53;97270.48;1800578;79;25779;-78
2022/06/27 00:28:29;;;;;;;8.65;5.42;;;;;;;17.12;63.58;97271.02;1798499;79;25665;-78
2022/06/27 00:30:56;;;;;;;8.13;5.47;;;;;;;17.08;63.63;97267.14;1791873;79;27372;-77
2022/06/27 00:33:22;;;;;;;6.28;4.95;;;;;;;17.04;63.75;97275.55;1795808;79;25828;-78
2022/06/27 00:35:50;;;;;;;6.33;4.97;;;;;;;17.01;63.78;97276.08;1803721;79;25821;-76
2022/06/27 00:38:17;;;;;;;5.35;4.85;;;;;;;16.96;63.94;97272.74;1783179;78;26291;-77
2022/06/27 00:40:44;;;;;;;5.70;5.10;;;;;;;16.93;64.07;97278.70;1782542;79;25781;-76
2022/06/27 00:43:11;;;;;;;5.37;4.87;;;;;;;16.88;64.11;97275.92;1779093;79;28154;-77
2022/06/27 00:45:38;;;;;;;6.58;5.17;;;;;;;16.84;64.23;97275.60;1793425;79;25837;-76
2022/06/27 00:48:05;;;;;;;5.92;5.10;;;;;;;16.78;64.38;97272.55;1784670;79;25745;-77
2022/06/27 00:50:32;;;;;;;5.90;5.30;;;;;;;16.77;64.56;97278.25;1792971;79;25700;-78
2022/06/27 00:52:59;;;;;;;7.67;5.20;;;;;;;16.73;64.63;97275.73;1794573;79;26112;-76
2022/06/27 00:55:26;;;;;;;5.67;5.05;;;;;;;16.66;64.74;97276.47;1791841;79;27455;-76
2022/06/27 00:57:53;;;;;;;4.95;4.55;;;;;;;16.64;64.84;97275.36;1788586;79;25633;-78
2022/06/27 01:00:21;;;;;;;6.78;5.08;;;;;;;16.61;64.90;97282.64;1796931;78;25219;-77
2022/06/27 01:02:48;;;;;;;6.25;5.10;;;;;;;16.57;64.90;97282.84;1790167;79;25892;-76
2022/06/27 01:05:15;;;;;;;8.13;5.17;;;;;;;16.51;65.04;97287.95;1797499;79;25809;-76
2022/06/27 01:07:41;;;;;;;7.65;5.20;;;;;;;16.47;65.17;97282.72;1801833;79;27399;-77
2022/06/27 01:10:09;;;;;;;6.17;5.58;;;;;;;16.46;65.30;97290.06;1791101;79;25721;-77
2022/06/27 01:12:40;;;;;;;6.65;5.10;;;;;;;16.42;65.43;97282.66;1795617;78;26907;-77
2022/06/27 01:15:09;;;;;;;8.35;5.35;;;;;;;16.37;65.54;97283.94;1788733;78;25723;-75
2022/06/27 01:17:37;;;;;;;6.25;5.08;;;;;;;16.37;65.63;97288.02;1800013;79;25872;-75
2022/06/27 01:20:04;;;;;;;5.35;4.85;;;;;;;16.35;65.71;97286.91;1801766;79;27397;-76
2022/06/27 01:22:31;;;;;;;6.50;5.22;;;;;;;16.32;65.77;97287.94;1788955;79;25709;-76
2022/06/27 01:24:58;;;;;;;8.95;5.53;;;;;;;16.27;65.87;97287.88;1803560;79;25691;-78
2022/06/27 01:27:25;;;;;;;9.68;5.60;;;;;;;16.20;65.83;97292.95;1795615;79;26303;-77
2022/06/27 01:29:52;;;;;;;6.00;5.40;;;;;;;16.13;65.94;97292.31;1791566;79;25640;-77
2022/06/27 01:32:18;;;;;;;7.08;5.62;;;;;;;16.04;66.07;97288.37;1793752;79;28119;-76
2022/06/27 01:34:45;;;;;;;7.17;5.30;;;;;;;15.99;66.22;97291.00;1801113;79;25649;-77
2022/06/27 01:37:11;;;;;;;7.65;6.00;;;;;;;16.03;66.38;97299.51;1790296;79;25864;-77
2022/06/27 01:39:38;;;;;;;6.78;5.42;;;;;;;16.06;66.46;97293.00;1781347;79;25723;-76
2022/06/27 01:42:05;;;;;;;8.58;6.17;;;;;;;16.08;66.52;97292.23;1736968;80;25219;-76
2022/06/27 01:44:33;;;;;;;9.35;6.10;;;;;;;16.08;66.47;97300.39;1734300;82;27377;-76
2022/06/27 01:47:08;;;;;;;8.88;5.80;;;;;;;16.01;66.57;97296.20;1704606;81;25919;-76
2022/06/27 01:49:37;;;;;;;7.10;5.55;;;;;;;15.93;66.75;97289.83;1709907;82;25753;-76
2022/06/27 01:52:06;;;;;;;6.87;6.00;;;;;;;15.89;66.97;97292.20;1710572;82;25854;-76
2022/06/27 01:54:34;;;;;;;8.48;5.85;;;;;;;15.89;67.06;97290.84;1713613;83;25741;-75
2022/06/27 01:57:00;;;;;;;7.67;6.72;;;;;;;15.91;67.14;97291.97;1716582;83;28259;-76
2022/06/27 01:59:30;;;;;;;7.22;6.03;;;;;;;15.88;67.28;97290.55;1711601;82;25774;-78
2022/06/27 02:01:58;;;;;;;7.22;6.10;;;;;;;15.82;67.33;97282.00;1719459;83;25737;-76
2022/06/27 02:04:28;;;;;;;9.48;5.90;;;;;;;15.84;67.47;97287.49;1720499;83;26471;-76
2022/06/27 02:06:57;;;;;;;7.58;6.53;;;;;;;15.84;67.57;97282.59;1706821;83;25851;-75
2022/06/27 02:09:24;;;;;;;9.40;5.97;;;;;;;15.75;67.60;97293.07;1694232;82;27439;-76
2022/06/27 02:11:55;;;;;;;11.43;6.42;;;;;;;15.71;67.78;97284.27;1704970;82;25721;-76
2022/06/27 02:14:22;;;;;;;6.90;6.12;;;;;;;15.67;67.87;97291.30;1721109;83;26910;-76
2022/06/27 02:16:49;;;;;;;8.45;6.90;;;;;;;15.70;68.01;97291.61;1706890;82;25681;-76
2022/06/27 02:19:18;;;;;;;7.83;6.28;;;;;;;15.75;68.06;97293.07;1703375;83;25645;-77
2022/06/27 02:21:46;;;;;;;7.08;6.37;;;;;;;15.72;67.99;97304.44;1703823;82;27436;-77
2022/06/27 02:24:14;;;;;;;7.40;6.70;;;;;;;15.64;68.02;97302.13;1695416;82;25413;-77
2022/06/27 02:26:42;;;;;;;9.83;6.60;;;;;;;15.66;68.15;97310.05;1703555;82;25851;-75
2022/06/27 02:29:09;;;;;;;6.67;5.97;;;;;;;15.70;68.17;97300.30;1713694;82;25924;-76
2022/06/27 02:31:45;;;;;;;7.03;5.97;;;;;;;15.71;68.12;97301.95;1723814;83;25693;-76
2022/06/27 02:34:13;;;;;;;7.12;6.10;;;;;;;15.71;68.14;97300.06;1700115;82;27446;-76
2022/06/27 02:36:41;;;;;;;7.67;6.08;;;;;;;15.73;68.16;97295.73;1717654;83;25698;-76
2022/06/27 02:39:15;;;;;;;7.95;5.78;;;;;;;15.72;68.15;97295.45;1717676;83;25704;-76
2022/06/27 02:41:45;;;;;;;7.37;6.12;;;;;;;15.71;68.13;97296.52;1713848;82;25743;-77
2022/06/27 02:44:13;;;;;;;10.40;6.33;;;;;;;15.72;68.10;97296.27;1714795;83;25238;-76
2022/06/27 02:46:42;;;;;;;8.68;6.25;;;;;;;15.71;68.05;97291.08;1708873;82;28057;-76
2022/06/27 02:49:09;;;;;;;7.10;6.12;;;;;;;15.71;68.08;97295.98;1696184;82;25801;-76
2022/06/27 02:51:47;;;;;;;9.45;5.67;;;;;;;15.70;68.06;97294.86;1668126;83;26425;-76
2022/06/27 02:54:23;;;;;;;9.00;6.72;;;;;;;15.68;68.08;97298.39;1629365;87;26581;-76
2022/06/27 02:57:18;;;;;;;7.12;5.75;;;;;;;15.65;68.18;97297.52;1627384;87;26022;-76
2022/06/27 02:59:47;;;;;;;7.20;6.37;;;;;;;15.65;68.25;97300.23;1644206;86;27437;-76
2022/06/27 03:02:16;;;;;;;9.28;6.08;;;;;;;15.63;68.34;97299.66;1645753;86;25884;-76
2022/06/27 03:04:42;;;;;;;10.05;6.65;;;;;;;15.60;68.38;97298.24;1648182;86;25799;-76
2022/06/27 03:07:09;;;;;;;7.92;6.37;;;;;;;15.59;68.42;97305.28;1650694;86;25864;-76
2022/06/27 03:09:36;;;;;;;9.58;6.15;;;;;;;15.60;68.52;97311.02;1645967;86;25771;-76
2022/06/27 03:12:03;;;;;;;6.65;6.05;;;;;;;15.59;68.54;97313.45;1645834;86;28162;-75
2022/06/27 03:14:29;;;;;;;8.25;7.15;;;;;;;15.58;68.66;97310.47;1643504;86;25836;-77
2022/06/27 03:16:56;;;;;;;8.55;6.65;;;;;;;15.57;68.71;97304.20;1645196;85;25802;-76
2022/06/27 03:19:22;;;;;;;7.92;6.47;;;;;;;15.58;68.80;97305.03;1645929;86;25828;-75
2022/06/27 03:21:49;;;;;;;7.30;6.15;;;;;;;15.55;68.86;97308.23;1648879;86;25856;-76
2022/06/27 03:24:16;;;;;;;8.88;6.53;;;;;;;15.55;68.94;97301.42;1652042;85;27434;-76
2022/06/27 03:26:42;;;;;;;9.18;6.37;;;;;;;15.58;68.97;97303.66;1648004;86;25536;-77
2022/06/27 03:29:09;;;;;;;9.85;6.75;;;;;;;15.59;69.00;97302.56;1644420;85;25784;-76
2022/06/27 03:31:36;;;;;;;9.85;6.30;;;;;;;15.60;69.04;97308.30;1643590;86;25963;-76
2022/06/27 03:34:03;;;;;;;12.28;6.80;;;;;;;15.59;69.12;97308.00;1679635;84;25756;-77
2022/06/27 03:36:29;;;;;;;10.23;6.65;;;;;;;15.61;69.17;97308.59;1682986;84;28321;-76
2022/06/27 03:38:56;;;;;;;8.50;5.90;;;;;;;15.64;69.27;97310.30;1683701;83;25820;-77
2022/06/27 03:41:22;;;;;;;9.38;6.92;;;;;;;15.64;69.31;97308.11;1683333;84;25840;-76
2022/06/27 03:43:49;;;;;;;10.88;6.70;;;;;;;15.65;69.34;97311.13;1680145;84;25803;-76
2022/06/27 03:46:16;;;;;;;8.65;6.45;;;;;;;15.69;69.38;97310.93;1681980;83;25795;-77
2022/06/27 03:51:27;;;;;;;8.28;6.85;;;;;;;15.77;69.32;97305.07;1712978;82;25825;-77
2022/06/27 03:53:54;;;;;;;10.93;8.58;;;;;;;15.82;69.37;97307.33;1712837;83;25812;-77
2022/06/27 03:56:20;;;;;;;11.45;7.92;;;;;;;15.84;69.34;97307.08;1706671;82;26434;-76
2022/06/27 03:58:47;;;;;;;9.33;7.90;;;;;;;15.86;69.37;97311.75;1720528;81;25673;-78
2022/06/27 04:01:14;;;;;;;11.18;7.45;;;;;;;15.91;69.40;97315.93;1774807;80;28100;-76
2022/06/27 04:03:40;;;;;;;11.08;7.90;;;;;;;15.95;69.44;97310.25;1742643;80;25718;-78
2022/06/27 04:06:07;;;;;;;13.22;8.30;;;;;;;16.00;69.44;97312.25;1759598;80;25645;-76
2022/06/27 04:08:34;;;;;;;10.25;7.87;;;;;;;16.03;69.44;97307.14;1750071;80;25853;-78
2022/06/27 04:11:00;;;;;;;10.58;8.25;;;;;;;16.09;69.50;97310.22;1731291;79;26440;-77
2022/06/27 04:13:27;;;;;;;8.33;7.40;;;;;;;16.14;69.45;97312.20;1732286;82;27384;-76
2022/06/27 04:15:54;;;;;;;10.65;7.08;;;;;;;16.18;69.45;97316.09;1731703;82;25706;-76
2022/06/27 04:18:20;;;;;;;9.00;7.20;;;;;;;16.25;69.42;97319.98;1733155;82;25731;-76
2022/06/27 04:20:47;;;;;;;10.00;7.87;;;;;;;16.30;69.56;97314.62;1739971;82;26366;-78
2022/06/27 04:23:13;;;;;;;12.43;8.38;;;;;;;16.33;69.55;97317.66;1713841;81;25773;-76
2022/06/27 04:25:42;;;;;;;15.05;8.08;;;;;;;16.39;69.58;97319.93;1699211;81;26831;-79
2022/06/27 04:28:08;;;;;;;12.43;7.83;;;;;;;16.43;69.60;97322.42;1698944;82;25871;-78
2022/06/27 04:30:35;;;;;;;8.75;7.22;;;;;;;16.48;69.57;97319.78;1709515;83;25806;-77
2022/06/27 04:33:02;;;;;;;12.50;7.95;;;;;;;16.53;69.61;97317.97;1702391;82;25786;-77
2022/06/27 04:35:29;;;;;;;10.32;7.20;;;;;;;16.58;69.62;97319.92;1713682;83;25778;-76
2022/06/27 04:37:55;;;;;;;10.45;7.85;;;;;;;16.63;69.61;97326.84;1730061;82;27491;-76
2022/06/27 04:40:22;;;;;;;12.98;8.20;;;;;;;16.68;69.66;97325.53;1715168;81;25489;-77
2022/06/27 04:42:49;;;;;;;11.12;6.92;;;;;;;16.74;69.71;97332.72;1699248;82;25682;-77
2022/06/27 04:45:17;;;;;;;8.63;7.72;;;;;;;16.81;69.79;97329.26;1684025;82;25563;-78
2022/06/27 04:47:45;;;;;;;13.22;7.95;;;;;;;16.89;69.85;97329.38;1714058;82;25910;-77
2022/06/27 04:50:16;;;;;;;10.60;7.80;;;;;;;16.96;69.86;97330.00;1706387;83;28483;-80
2022/06/27 04:52:42;;;;;;;14.83;8.28;;;;;;;17.02;69.85;97324.91;1626225;85;25969;-77
2022/06/27 04:55:12;;;;;;;14.63;7.83;;;;;;;17.10;69.73;97319.53;1673779;84;25897;-77
2022/06/27 04:57:42;;;;;;;9.03;7.40;;;;;;;17.17;69.69;97322.88;1692429;84;26458;-77
2022/06/27 05:00:13;;;;;;;8.55;7.12;;;;;;;17.25;69.68;97333.36;1711020;83;26004;-77
2022/06/27 05:02:40;;;;;;;13.50;8.25;;;;;;;17.32;69.66;97329.88;1698263;82;27564;-76
2022/06/27 05:05:09;;;;;;;11.38;7.67;;;;;;;17.40;69.67;97329.41;1705062;82;25819;-77
2022/06/27 05:07:35;;;;;;;9.20;7.60;;;;;;;17.49;69.61;97337.44;1709825;82;25857;-78
2022/06/27 05:10:03;;;;;;;10.13;8.08;;;;;;;17.58;69.54;97334.53;1705629;82;26506;-77
2022/06/27 05:12:30;;;;;;;13.80;8.40;;;;;;;17.67;69.44;97340.91;1695296;82;25935;-77
2022/06/27 05:14:57;;;;;;;13.28;8.18;;;;;;;17.75;69.36;97340.46;1701443;83;27487;-77
2022/06/27 05:17:24;;;;;;;12.33;7.70;;;;;;;17.83;69.28;97337.25;1698489;83;25740;-77
2022/06/27 05:19:51;;;;;;;14.00;8.43;;;;;;;17.93;69.25;97341.44;1701281;82;25895;-77
2022/06/27 05:22:18;;;;;;;11.60;8.45;;;;;;;18.03;69.00;97344.25;1683657;83;25947;-76
2022/06/27 05:24:44;;;;;;;15.00;8.10;;;;;;;18.12;68.84;97338.58;1681042;83;25945;-76
2022/06/27 05:27:11;;;;;;;11.05;7.95;;;;;;;18.24;68.67;97338.39;1680619;83;27521;-77
2022/06/27 05:29:38;;;;;;;10.40;7.58;;;;;;;18.34;68.48;97337.12;1668372;83;25517;-77
2022/06/27 05:32:07;;;;;;;9.75;7.87;;;;;;;18.44;68.27;97338.56;1673248;83;25743;-79
2022/06/27 05:34:33;;;;;;;12.50;8.15;;;;;;;18.55;68.09;97339.45;1672144;83;25770;-78
2022/06/27 05:37:00;;;;;;;9.63;7.72;;;;;;;18.65;68.28;97339.00;1671352;83;25990;-76
2022/06/27 05:39:27;;;;;;;12.20;8.25;;;;;;;18.77;68.36;97340.16;1672674;83;28163;-76
2022/06/27 05:41:54;;;;;;;11.83;8.43;;;;;;;18.89;68.26;97340.77;1678367;84;25902;-75
2022/06/27 05:44:20;;;;;;;12.05;8.58;;;;;;;19.00;68.10;97335.63;1668646;83;25813;-75
2022/06/27 05:46:47;;;;;;;17.42;9.60;;;;;;;19.15;68.12;97338.15;1676051;84;25775;-75
2022/06/27 05:49:14;;;;;;;10.65;8.23;;;;;;;19.28;68.45;97342.58;1683641;84;26508;-76
2022/06/27 05:51:41;;;;;;;9.13;7.60;;;;;;;19.42;68.62;97345.64;1672852;84;27477;-76
2022/06/27 05:54:09;;;;;;;13.05;8.23;;;;;;;19.57;68.29;97347.06;1678781;85;25821;-75
2022/06/27 05:56:36;;;;;;;9.08;7.47;;;;;;;19.71;68.12;97347.37;1766303;79;25759;-75
2022/06/27 05:59:05;;;;;;;11.93;7.10;;;;;;;19.88;67.74;97349.88;1786360;79;25867;-75
2022/06/27 06:01:33;;;;;;;8.48;7.22;;;;;;;20.02;67.63;97350.98;1778322;79;25438;-75
2022/06/27 06:04:00;;;;;;;10.20;8.45;;;;;;;20.17;67.39;97357.00;1787668;79;27397;-75
2022/06/27 06:06:28;;;;;;;7.47;6.62;;;;;;;20.28;67.41;97348.53;1788602;79;25690;-75
2022/06/27 06:08:54;;;;;;;10.23;6.90;;;;;;;20.41;67.40;97353.45;1787762;79;25864;-75
2022/06/27 06:11:21;;;;;;;11.50;7.10;;;;;;;20.54;66.88;97347.97;1799610;79;25727;-75
2022/06/27 06:13:48;;;;;;;9.10;6.80;;;;;;;20.68;66.36;97346.84;1800883;79;25807;-75
2022/06/27 06:16:19;;;;;;;22.10;9.88;;;;;;;20.83;66.15;97350.94;1777879;79;27410;-76
2022/06/27 06:18:43;;;;;;;19.10;10.25;;;;;;;20.97;66.04;97353.38;1789916;78;25263;-75
2022/06/27 06:21:09;;;;;;;18.98;10.55;;;;;;;21.10;66.16;97352.78;1791770;79;25704;-75
2022/06/27 06:23:36;;;;;;;12.10;7.70;;;;;;;21.25;66.04;97351.12;1787903;79;26767;-75
2022/06/27 06:26:05;;;;;;;8.30;6.72;;;;;;;21.37;65.75;97347.49;1777080;79;25712;-76
2022/06/27 06:28:32;;;;;;;7.95;7.12;;;;;;;21.52;65.33;97352.89;1788607;78;27560;-76
2022/06/27 06:30:58;;;;;;;12.15;6.35;;;;;;;21.66;64.81;97344.85;1777018;79;25679;-76
2022/06/27 06:33:26;;;;;;;11.03;7.15;;;;;;;21.81;64.57;97351.63;1747639;79;25991;-75
2022/06/27 06:35:53;;;;;;;8.73;6.78;;;;;;;21.96;64.29;97351.54;1764583;80;25769;-75
2022/06/27 06:38:19;;;;;;;9.70;6.33;;;;;;;22.09;64.02;97351.48;1751783;80;25198;-75
2022/06/27 06:40:46;;;;;;;9.28;6.25;;;;;;;22.25;63.78;97353.80;1764010;80;27554;-75
2022/06/27 06:43:12;;;;;;;9.38;6.65;;;;;;;22.32;63.36;97336.17;1756898;80;25885;-76
2022/06/27 06:45:40;;;;;;;10.60;6.42;;;;;;;22.43;63.04;97319.28;1752317;80;26338;-76
2022/06/27 06:48:08;;;;;;;8.03;6.30;;;;;;;22.71;62.46;97345.12;1754143;80;25732;-76
2022/06/27 06:50:35;;;;;;;7.25;6.53;;;;;;;22.86;61.94;97345.01;1743436;80;25884;-75
2022/06/27 06:53:02;;;;;;;8.53;6.25;;;;;;;22.98;61.78;97343.23;1755472;80;27617;-76
2022/06/27 06:55:29;;;;;;;13.72;6.58;;;;;;;23.10;61.51;97349.14;1737629;80;25698;-76
2022/06/27 06:57:56;;;;;;;8.45;6.15;;;;;;;23.23;60.94;97344.30;1753904;80;26659;-76
2022/06/27 07:00:23;;;;;;;8.03;6.55;;;;;;;23.35;60.57;97341.95;1747866;80;25783;-77
2022/06/27 07:02:52;;;;;;;10.43;6.50;;;;;;;23.49;60.20;97345.36;1747819;80;25704;-76
2022/06/27 07:05:20;;;;;;;8.78;6.30;;;;;;;23.61;60.02;97342.47;1767164;80;28121;-77
2022/06/27 07:07:50;;;;;;;8.38;6.67;;;;;;;23.75;59.82;97345.31;1751360;80;25923;-78
2022/06/27 07:10:16;;;;;;;8.35;6.70;;;;;;;23.87;59.19;97338.80;1734392;80;25761;-76
2022/06/27 07:12:43;;;;;;;6.95;6.20;;;;;;;24.08;58.79;97342.61;1766663;81;25910;-76
2022/06/27 07:15:10;;;;;;;8.50;6.40;;;;;;;24.25;58.70;97340.17;1769528;80;25662;-76
2022/06/27 07:17:48;;;;;;;8.58;6.78;;;;;;;24.41;57.90;97347.05;1768326;80;28264;-77
2022/06/27 07:20:20;;;;;;;7.25;6.50;;;;;;;24.47;57.67;97344.48;1689925;83;25880;-76
2022/06/27 07:22:49;;;;;;;8.43;5.72;;;;;;;24.55;57.46;97341.02;1687906;83;25827;-76
2022/06/27 07:25:17;;;;;;;9.80;5.50;;;;;;;24.63;57.37;97334.00;1696988;83;25793;-76
2022/06/27 07:27:45;;;;;;;7.28;6.42;;;;;;;24.73;56.93;97337.95;1703301;83;25845;-77
2022/06/27 07:30:14;;;;;;;6.25;5.65;;;;;;;24.84;57.01;97331.68;1698197;83;28589;-76
2022/06/27 07:32:42;;;;;;;10.15;6.45;;;;;;;24.98;56.37;97332.55;1687836;83;25821;-77
2022/06/27 07:37:45;;;;;;;6.55;5.75;;;;;;;25.21;56.10;97331.53;1629906;86;26228;-78
2022/06/27 07:40:11;;;;;;;6.60;5.93;;;;;;;25.31;55.76;97323.59;1606706;88;27073;-77
2022/06/27 07:42:39;;;;;;;6.45;5.20;;;;;;;25.44;55.46;97329.11;1610108;88;27781;-77
2022/06/27 07:45:08;;;;;;;7.10;4.95;;;;;;;25.58;55.01;97325.51;1607647;88;25802;-77
2022/06/27 07:47:36;;;;;;;5.70;5.10;;;;;;;25.70;53.96;97323.05;1605241;88;26313;-77
2022/06/27 07:50:03;;;;;;;6.45;5.58;;;;;;;25.78;53.50;97323.69;1609282;88;26595;-77
2022/06/27 07:53:11;;;;;;;6.47;5.15;;;;;;;25.92;52.72;97324.48;1605733;88;25820;-77
2022/06/27 07:54:59;;;;;;;8.20;4.92;;;;;;;25.98;51.97;97316.86;1611190;88;28023;-77
2022/06/27 07:57:26;;;;;;;6.75;4.75;;;;;;;26.07;51.38;97325.50;1632395;86;25937;-77
2022/06/27 07:59:54;;;;;;;6.72;5.00;;;;;;;26.23;51.13;97316.81;1652501;86;25890;-76
2022/06/27 08:02:20;;;;;;;5.87;4.85;;;;;;;26.41;50.55;97320.00;1644318;86;26851;-78
2022/06/27 08:04:47;;;;;;;7.05;4.60;;;;;;;26.65;49.83;97321.04;1644179;86;25873;-77
2022/06/27 08:07:13;;;;;;;5.62;4.60;;;;;;;27.03;49.46;97313.94;1646440;86;27578;-78
2022/06/27 08:09:42;;;;;;;5.22;4.10;;;;;;;27.49;48.53;97312.03;1609108;87;25325;-77
2022/06/27 08:12:08;;;;;;;6.12;3.90;;;;;;;27.94;47.49;97321.50;1582919;88;27307;-79
2022/06/27 08:14:36;;;;;;;5.12;4.42;;;;;;;28.42;46.79;97316.36;1602018;87;25855;-77
2022/06/27 08:17:03;;;;;;;6.67;4.03;;;;;;;28.92;45.97;97313.25;1614418;86;26048;-78
2022/06/27 08:19:30;;;;;;;5.25;4.08;;;;;;;29.43;45.42;97311.41;1567360;90;28252;-78
2022/06/27 08:21:58;;;;;;;6.50;3.72;;;;;;;29.88;44.58;97303.25;1593288;89;26357;-78
2022/06/27 08:24:24;;;;;;;5.17;4.67;;;;;;;30.28;43.47;97311.14;1645868;86;25846;-78
2022/06/27 08:26:52;;;;;;;6.37;4.12;;;;;;;30.61;42.68;97311.17;1637415;86;25966;-78
2022/06/27 08:29:20;;;;;;;8.73;3.90;;;;;;;30.90;42.45;97306.84;1640384;86;25970;-78
2022/06/27 08:31:48;;;;;;;4.97;3.98;;;;;;;31.28;42.20;97306.54;1638502;86;28345;-79
2022/06/27 08:34:15;;;;;;;4.17;3.77;;;;;;;31.70;41.62;97305.75;1655931;85;25765;-78
2022/06/27 08:36:42;;;;;;;5.42;4.22;;;;;;;32.09;41.20;97313.11;1708757;80;25848;-79
2022/06/27 08:39:11;;;;;;;4.37;3.95;;;;;;;32.45;40.52;97308.81;1759025;80;25769;-78
2022/06/27 08:41:38;;;;;;;8.30;4.20;;;;;;;32.79;39.79;97310.18;1737833;80;25983;-80
2022/06/27 08:44:06;;;;;;;4.58;3.83;;;;;;;33.09;39.16;97310.55;1737865;80;27584;-78
2022/06/27 08:46:34;;;;;;;4.33;3.60;;;;;;;33.42;38.60;97312.22;1737724;80;25698;-77
2022/06/27 08:49:02;;;;;;;6.15;3.95;;;;;;;33.69;37.96;97311.28;1758831;80;25708;-77
2022/06/27 08:51:29;;;;;;;6.33;3.92;;;;;;;33.96;37.53;97307.52;1741279;80;25789;-77
2022/06/27 08:53:56;;;;;;;6.92;4.37;;;;;;;34.29;37.29;97304.86;1754831;80;25837;-77
2022/06/27 08:56:24;;;;;;;7.92;3.85;;;;;;;34.55;36.40;97306.38;1767250;81;28185;-76
2022/06/27 08:58:52;;;;;;;6.40;3.98;;;;;;;34.83;36.01;97313.75;1748779;79;25758;-76
2022/06/27 09:01:23;;;;;;;7.75;4.78;;;;;;;35.05;35.33;97310.16;1747156;81;25762;-77
2022/06/27 09:04:00;;;;;;;6.83;4.05;;;;;;;35.30;35.28;97307.22;1754602;80;25828;-78
2022/06/27 09:06:31;;;;;;;14.80;4.60;;;;;;;35.63;34.91;97300.92;1742700;80;25759;-81
2022/06/27 09:09:08;;;;;;;5.33;3.70;;;;;;;35.92;34.33;97300.79;1678117;84;28057;-77
2022/06/27 09:11:37;;;;;;;6.95;3.60;;;;;;;36.06;34.23;97293.97;1679663;83;25856;-77
2022/06/27 09:14:05;;;;;;;6.22;4.22;;;;;;;36.38;33.72;97302.83;1693758;84;25850;-78
2022/06/27 09:16:33;;;;;;;3.90;3.50;;;;;;;36.63;33.13;97298.91;1685807;84;25991;-77
2022/06/27 09:19:00;;;;;;;5.78;3.40;;;;;;;36.74;31.88;97298.45;1684185;84;25869;-75
2022/06/27 09:21:27;;;;;;;3.85;3.45;;;;;;;36.64;30.64;97303.94;1693634;84;27410;-77
2022/06/27 09:24:00;;;;;;;3.50;3.20;;;;;;;36.27;30.25;97291.24;1683464;84;25537;-77
2022/06/27 09:26:34;;;;;;;4.95;3.30;;;;;;;36.40;30.61;97295.42;1683381;84;25813;-77
2022/06/27 09:29:10;;;;;;;3.92;3.20;;;;;;;36.66;30.02;97286.90;1677299;84;25814;-77
2022/06/27 09:31:42;;;;;;;3.25;2.95;;;;;;;36.83;30.01;97289.73;1686958;83;25775;-79
2022/06/27 09:34:23;;;;;;;7.87;3.65;;;;;;;36.92;28.89;97283.78;1686412;84;27427;-79
2022/06/27 09:36:56;;;;;;;;;;;;;;;36.87;29.20;97279.30;1712090;83;25868;-77
2022/06/27 09:39:30;;;;;;;3.40;3.10;;;;;;;37.04;28.44;97277.88;1681121;83;26471;-76
2022/06/27 09:42:04;;;;;;;5.30;3.58;;;;;;;36.93;28.54;97284.00;1681177;83;25905;-82
2022/06/27 09:44:40;;;;;;;3.50;3.20;;;;;;;36.99;29.18;97282.44;1680737;85;25491;-81
2022/06/27 09:47:20;;;;;;;6.95;3.70;;;;;;;37.23;28.83;97283.29;1628859;87;27468;-79
2022/06/27 09:49:56;;;;;;;7.40;3.83;;;;;;;37.38;28.17;97280.00;1629050;87;25880;-78
2022/06/27 09:52:24;;;;;;;4.72;3.52;;;;;;;37.49;28.28;97284.51;1603071;86;25789;-78
2022/06/27 09:54:54;;;;;;;4.40;3.60;;;;;;;37.52;27.21;97276.48;1596624;87;26104;-79
2022/06/27 09:57:22;;;;;;;4.25;3.58;;;;;;;37.18;27.28;97275.81;1592879;87;25895;-78
2022/06/27 09:59:51;;;;;;;4.55;3.70;;;;;;;37.12;27.38;97269.69;1592928;87;27411;-79
2022/06/27 10:02:21;;;;;;;5.08;3.58;;;;;;;37.13;27.12;97275.53;1596176;87;25902;-80
2022/06/27 10:04:51;;;;;;;5.92;3.80;;;;;;;37.09;27.19;97274.09;1607645;87;25484;-82
2022/06/27 10:07:19;;;;;;;5.55;3.52;;;;;;;36.95;26.91;97265.54;1625565;87;25784;-79
2022/06/27 10:09:51;;;;;;;4.28;3.40;;;;;;;36.99;26.93;97265.55;1628676;87;25751;-79
2022/06/27 10:15:16;;;;;;;5.30;3.85;;;;;;;36.81;27.54;97263.99;1536906;92;25874;-77
2022/06/27 10:17:50;;;;;;;9.45;5.15;;;;;;;36.89;27.27;97259.23;1536797;91;25863;-79
2022/06/27 10:20:27;;;;;;;6.87;3.70;;;;;;;36.91;27.04;97254.03;1537540;91;26609;-81
2022/06/27 10:23:26;;;;;;;8.55;4.67;;;;;;;37.02;27.04;97256.34;1492774;94;26001;-78
2022/06/27 10:25:56;;;;;;;4.20;3.62;;;;;;;37.15;26.94;97258.48;1493932;94;27529;-78
2022/06/27 10:28:23;;;;;;;4.37;3.92;;;;;;;37.23;26.73;97259.36;1496502;94;26072;-78
2022/06/27 10:30:56;;;;;;;4.05;3.67;;;;;;;37.29;26.35;97255.61;1492880;94;25877;-79
2022/06/27 10:33:28;;;;;;;4.53;4.12;;;;;;;37.21;26.49;97253.31;1500974;94;26276;-81
2022/06/27 10:38:42;;;;;;;4.17;3.70;;;;;;;37.26;25.96;97245.12;1445423;98;27586;-80
2022/06/27 10:41:29;;;;;;;3.75;3.42;;;;;;;37.20;25.65;97246.66;1442101;98;25865;-80
2022/06/27 10:43:56;;;;;;;6.55;3.40;;;;;;;37.24;25.82;97246.91;1450566;98;25793;-82
2022/06/27 10:46:29;;;;;;;8.28;3.95;;;;;;;37.21;25.51;97242.66;1449523;98;26009;-83
2022/06/27 10:48:58;;;;;;;4.28;3.85;;;;;;;37.23;25.28;97245.30;1439637;98;25412;-81
2022/06/27 10:51:31;;;;;;;4.70;3.70;;;;;;;37.29;25.50;97240.13;1413838;100;27699;-84
2022/06/27 10:54:11;;;;;;;3.98;3.67;;;;;;;37.35;25.28;97230.91;1389924;101;26892;-82
2022/06/27 10:56:48;;;;;;;5.42;3.98;;;;;;;37.42;25.44;97230.98;1416179;100;25854;-81
2022/06/27 10:59:20;;;;;;;3.87;3.58;;;;;;;37.54;25.42;97229.05;1419691;98;26146;-82
2022/06/27 11:01:57;;;;;;;3.80;3.47;;;;;;;37.63;25.24;97221.08;1488493;95;25858;-81
2022/06/27 11:04:29;;;;;;;4.20;3.75;;;;;;;37.66;24.85;97221.70;1493576;95;27461;-82
2022/06/27 11:06:59;;;;;;;3.37;3.15;;;;;;;37.61;24.87;97217.81;1492771;95;25780;-84
2022/06/27 11:09:40;;;;;;;4.20;3.90;;;;;;;37.67;25.86;97217.09;1495909;95;25983;-81
2022/06/27 11:12:10;;;;;;;4.97;3.70;;;;;;;37.75;25.64;97210.89;1544532;89;25951;-85
2022/06/27 11:14:56;;;;;;;4.28;3.47;;;;;;;37.79;26.33;97210.32;1589494;89;25881;-80
2022/06/27 11:17:39;;;;;;;4.55;3.95;;;;;;;37.74;25.94;97210.69;1664886;85;27477;-82
2022/06/27 11:20:23;;;;;;;5.45;3.83;;;;;;;37.38;25.86;97202.59;1667918;85;25781;-80
2022/06/27 11:22:57;;;;;;;3.95;3.65;;;;;;;36.85;26.16;97206.34;1666060;85;25421;-81
2022/06/27 11:25:27;;;;;;;7.40;4.00;;;;;;;36.24;26.10;97202.08;1664038;85;25751;-83
2022/06/27 11:33:35;;;;;;;5.83;3.72;;;;;;;35.25;27.84;97206.55;1625644;87;25788;-82
2022/06/27 11:36:02;;;;;;;4.37;3.98;;;;;;;35.38;28.02;97202.93;1613033;87;25992;-83
2022/06/27 11:38:34;;;;;;;5.62;4.70;;;;;;;35.29;28.10;97204.58;1614773;87;26774;-83
2022/06/27 11:41:08;;;;;;;7.03;4.17;;;;;;;35.13;28.08;97203.92;1646984;86;26174;-83
2022/06/27 11:43:57;;;;;;;4.87;4.45;;;;;;;34.92;28.06;97204.95;1650924;86;28269;-83
2022/06/27 11:46:36;;;;;;;4.45;4.15;;;;;;;34.87;27.98;97208.90;1622022;87;25673;-79
2022/06/27 11:49:09;;;;;;;4.95;3.75;;;;;;;34.82;27.76;97202.78;1647701;86;25792;-79
2022/06/27 11:51:43;;;;;;;5.72;4.12;;;;;;;34.66;27.51;97198.07;1657555;86;25829;-79
2022/06/27 11:54:14;;;;;;;6.12;4.37;;;;;;;34.44;27.63;97200.86;1657606;86;25936;-82
2022/06/27 11:56:44;;;;;;;5.55;4.20;;;;;;;34.23;27.66;97196.45;1647640;86;27440;-83